createdAt,value
2022-12-31T00:00:50.207Z,97575.53
2022-12-31T00:03:16.751Z,97595.84
2022-12-31T00:05:43.390Z,97588.38
2022-12-31T00:08:09.787Z,97587.97
2022-12-31T00:10:36.275Z,97579.06
2022-12-31T00:13:02.674Z,97579.69
2022-12-31T00:15:29.117Z,97582.38
2022-12-31T00:17:55.562Z,97579.22
2022-12-31T00:20:22.060Z,97583.75
2022-12-31T00:22:48.448Z,97586.22
2022-12-31T00:25:14.872Z,97598.66
2022-12-31T00:27:41.342Z,97601.06
2022-12-31T00:30:07.933Z,97615.59
2022-12-31T00:32:34.291Z,97612.22
2022-12-31T00:35:00.839Z,97627.06
2022-12-31T00:37:27.326Z,97632.97
2022-12-31T00:39:53.784Z,97635.13
2022-12-31T00:42:20.313Z,97645.06
2022-12-31T00:44:46.817Z,97635.44
2022-12-31T00:47:13.650Z,97591.59
2022-12-31T00:49:40.089Z,97578.88
2022-12-31T00:52:06.491Z,97569.47
2022-12-31T00:54:32.874Z,97561.81
2022-12-31T00:56:59.371Z,97571.97
2022-12-31T00:59:25.804Z,97562.69
2022-12-31T01:01:52.354Z,97565.56
2022-12-31T01:04:18.899Z,97574.91
2022-12-31T01:06:45.359Z,97590.44
2022-12-31T01:09:12.046Z,97578.75
2022-12-31T01:11:41.205Z,97587.69
2022-12-31T01:14:07.633Z,97590.81
2022-12-31T01:16:38.281Z,97583.88
2022-12-31T01:19:07.732Z,97588.69
2022-12-31T01:21:35.439Z,97595.47
2022-12-31T01:24:01.914Z,97592.28
2022-12-31T01:26:30.663Z,97590.28
2022-12-31T01:28:57.039Z,97586.84
2022-12-31T01:31:24.491Z,97586.94
2022-12-31T01:33:51.305Z,97577.44
2022-12-31T01:36:26.104Z,97577.53
2022-12-31T01:39:00.421Z,97575.84
2022-12-31T01:41:26.896Z,97580.81
2022-12-31T01:43:53.393Z,97589.41
2022-12-31T01:46:19.866Z,97591.31
2022-12-31T01:48:46.282Z,97583.00
2022-12-31T01:51:12.614Z,97576.31
2022-12-31T01:53:41.036Z,97580.91
2022-12-31T01:56:07.457Z,97579.44
2022-12-31T02:01:19.967Z,97574.06
2022-12-31T02:03:47.417Z,97574.91
2022-12-31T02:06:13.895Z,97568.94
2022-12-31T02:08:42.314Z,97561.94
2022-12-31T02:11:08.972Z,97561.94
2022-12-31T02:13:35.409Z,97564.63
2022-12-31T02:16:01.838Z,97569.59
2022-12-31T02:18:28.438Z,97574.91
2022-12-31T02:20:54.807Z,97567.09
2022-12-31T02:23:21.348Z,97586.94
2022-12-31T02:25:47.741Z,97591.41
2022-12-31T02:28:14.207Z,97594.50
2022-12-31T02:30:40.580Z,97607.16
2022-12-31T02:33:07.053Z,97615.41
2022-12-31T02:35:33.515Z,97614.59
2022-12-31T02:37:59.906Z,97613.59
2022-12-31T02:40:26.347Z,97613.19
2022-12-31T02:42:55.629Z,97625.41
2022-12-31T02:45:22.278Z,97625.97
2022-12-31T02:47:48.754Z,97617.81
2022-12-31T02:50:15.127Z,97624.50
2022-12-31T02:52:41.571Z,97619.31
2022-12-31T02:55:17.868Z,97602.06
2022-12-31T02:57:44.308Z,97594.66
2022-12-31T03:00:10.740Z,97598.09
2022-12-31T03:02:37.171Z,97598.69
2022-12-31T03:05:03.596Z,97591.06
2022-12-31T03:07:29.983Z,97589.25
2022-12-31T03:09:56.393Z,97574.78
2022-12-31T03:12:22.859Z,97574.66
2022-12-31T03:14:49.285Z,97601.00
2022-12-31T03:17:15.773Z,97611.50
2022-12-31T03:19:42.251Z,97623.66
2022-12-31T03:22:08.718Z,97636.53
2022-12-31T03:24:36.472Z,97646.81
2022-12-31T03:27:02.942Z,97635.88
2022-12-31T03:29:29.335Z,97631.38
2022-12-31T03:31:55.718Z,97619.34
2022-12-31T03:34:22.094Z,97615.91
2022-12-31T03:36:48.526Z,97615.72
2022-12-31T03:39:14.979Z,97606.59
2022-12-31T03:41:41.419Z,97604.16
2022-12-31T03:44:07.819Z,97596.38
2022-12-31T03:46:34.230Z,97581.50
2022-12-31T03:49:00.635Z,97606.13
2022-12-31T03:51:27.029Z,97609.38
2022-12-31T03:53:53.431Z,97605.66
2022-12-31T03:56:19.845Z,97623.50
2022-12-31T03:58:48.962Z,97623.94
2022-12-31T04:01:15.516Z,97625.63
2022-12-31T04:03:41.985Z,97618.56
2022-12-31T04:06:08.347Z,97614.44
2022-12-31T04:08:34.821Z,97619.78
2022-12-31T04:11:01.199Z,97616.84
2022-12-31T04:13:27.620Z,97611.50
2022-12-31T04:15:54.043Z,97612.97
2022-12-31T04:18:20.460Z,97614.25
2022-12-31T04:20:46.882Z,97605.34
2022-12-31T04:23:13.308Z,97603.25
2022-12-31T04:25:39.713Z,97588.38
2022-12-31T04:28:06.131Z,97587.56
2022-12-31T04:30:32.495Z,97595.78
2022-12-31T04:32:58.895Z,97585.84
2022-12-31T04:35:25.308Z,97593.34
2022-12-31T04:37:51.771Z,97595.13
2022-12-31T04:40:18.253Z,97610.34
2022-12-31T04:42:44.650Z,97613.34
2022-12-31T04:45:11.106Z,97621.84
2022-12-31T04:47:37.497Z,97622.47
2022-12-31T04:50:06.897Z,97631.75
2022-12-31T04:52:38.589Z,97622.69
2022-12-31T04:57:59.232Z,97615.63
2022-12-31T05:00:25.709Z,97607.34
2022-12-31T05:02:52.122Z,97600.56
2022-12-31T05:05:18.639Z,97596.03
2022-12-31T05:07:45.066Z,97613.38
2022-12-31T05:10:11.484Z,97612.72
2022-12-31T05:12:37.890Z,97620.59
2022-12-31T05:15:04.373Z,97624.34
2022-12-31T05:17:30.847Z,97626.19
2022-12-31T05:19:57.235Z,97609.63
2022-12-31T05:22:41.842Z,97607.34
2022-12-31T05:25:08.268Z,97606.72
2022-12-31T05:27:37.913Z,97608.41
2022-12-31T05:30:04.345Z,97608.41
2022-12-31T05:32:30.716Z,97608.41
2022-12-31T05:34:57.105Z,97608.81
2022-12-31T05:37:23.592Z,97602.81
2022-12-31T05:39:49.981Z,97610.25
2022-12-31T05:42:16.401Z,97609.22
2022-12-31T05:44:42.869Z,97610.03
2022-12-31T05:47:09.274Z,97621.06
2022-12-31T05:49:35.719Z,97618.16
2022-12-31T05:52:02.128Z,97622.31
2022-12-31T05:54:28.554Z,97611.72
2022-12-31T05:56:55.024Z,97607.75
2022-12-31T05:59:21.514Z,97615.47
2022-12-31T06:01:49.403Z,97623.53
2022-12-31T06:04:15.839Z,97616.63
2022-12-31T06:06:44.163Z,97626.44
2022-12-31T06:09:10.631Z,97617.72
2022-12-31T06:11:37.039Z,97625.00
2022-12-31T06:14:03.401Z,97626.66
2022-12-31T06:16:29.872Z,97628.31
2022-12-31T06:18:56.251Z,97615.91
2022-12-31T06:21:22.751Z,97625.63
2022-12-31T06:23:49.183Z,97632.50
2022-12-31T06:26:15.667Z,97638.47
2022-12-31T06:28:42.120Z,97635.13
2022-12-31T06:31:08.592Z,97639.22
2022-12-31T06:33:35.009Z,97639.69
2022-12-31T06:36:01.444Z,97635.78
2022-12-31T06:38:27.860Z,97630.00
2022-12-31T06:40:55.250Z,97617.97
2022-12-31T06:43:21.734Z,97616.94
2022-12-31T06:45:48.275Z,97616.06
2022-12-31T06:48:14.707Z,97620.59
2022-12-31T06:50:41.175Z,97622.22
2022-12-31T06:53:07.602Z,97618.63
2022-12-31T06:55:34.033Z,97615.31
2022-12-31T06:58:00.476Z,97616.31
2022-12-31T07:00:26.956Z,97612.16
2022-12-31T07:02:53.524Z,97628.09
2022-12-31T07:05:19.967Z,97626.81
2022-12-31T07:07:46.368Z,97629.75
2022-12-31T07:10:12.817Z,97628.28
2022-12-31T07:12:39.282Z,97610.34
2022-12-31T07:15:05.689Z,97629.34
2022-12-31T07:17:32.034Z,97625.25
2022-12-31T07:19:58.559Z,97628.19
2022-12-31T07:22:25.017Z,97630.19
2022-12-31T07:24:51.514Z,97633.94
2022-12-31T07:27:18.006Z,97637.25
2022-12-31T07:29:44.402Z,97629.19
2022-12-31T07:32:10.807Z,97629.94
2022-12-31T07:34:37.234Z,97638.75
2022-12-31T07:37:24.168Z,97656.63
2022-12-31T07:39:50.511Z,97650.84
2022-12-31T07:42:17.943Z,97654.56
2022-12-31T07:44:44.314Z,97652.75
2022-12-31T07:47:10.843Z,97656.75
2022-12-31T07:49:37.353Z,97652.19
2022-12-31T07:52:03.690Z,97668.25
2022-12-31T07:54:30.045Z,97656.00
2022-12-31T07:56:56.413Z,97664.69
2022-12-31T07:59:24.558Z,97663.88
2022-12-31T08:01:51.314Z,97660.53
2022-12-31T08:04:17.818Z,97650.84
2022-12-31T08:06:44.157Z,97643.22
2022-12-31T08:09:10.482Z,97662.06
2022-12-31T08:11:37.021Z,97659.09
2022-12-31T08:14:03.366Z,97663.72
2022-12-31T08:16:29.723Z,97679.66
2022-12-31T08:18:56.111Z,97673.09
2022-12-31T08:21:29.533Z,97662.53
2022-12-31T08:23:59.213Z,97658.09
2022-12-31T08:26:25.534Z,97652.75
2022-12-31T08:28:51.975Z,97652.16
2022-12-31T08:31:20.813Z,97660.03
2022-12-31T08:33:51.707Z,97656.50
2022-12-31T08:36:18.064Z,97656.47
2022-12-31T08:38:44.409Z,97655.66
2022-12-31T08:41:10.768Z,97653.78
2022-12-31T08:43:42.387Z,97638.22
2022-12-31T08:46:08.757Z,97639.88
2022-12-31T08:48:35.151Z,97652.03
2022-12-31T08:51:01.678Z,97646.31
2022-12-31T08:53:28.124Z,97648.81
2022-12-31T08:55:54.571Z,97648.84
2022-12-31T08:58:21.040Z,97656.09
2022-12-31T09:00:47.512Z,97657.94
2022-12-31T09:03:13.994Z,97663.97
2022-12-31T09:05:40.461Z,97668.50
2022-12-31T09:08:06.977Z,97666.31
2022-12-31T09:10:38.160Z,97665.28
2022-12-31T09:13:04.737Z,97665.09
2022-12-31T09:15:31.190Z,97659.28
2022-12-31T09:17:57.719Z,97647.25
2022-12-31T09:20:24.131Z,97654.28
2022-12-31T09:22:50.611Z,97652.41
2022-12-31T09:25:17.107Z,97657.19
2022-12-31T09:27:51.185Z,97649.53
2022-12-31T09:30:20.511Z,97653.88
2022-12-31T09:32:47.032Z,97659.06
2022-12-31T09:35:13.556Z,97644.59
2022-12-31T09:37:41.274Z,97647.91
2022-12-31T09:40:08.725Z,97650.03
2022-12-31T09:45:19.460Z,97640.97
2022-12-31T09:47:45.918Z,97643.09
2022-12-31T09:50:14.364Z,97643.31
2022-12-31T09:52:40.724Z,97653.94
2022-12-31T09:55:07.236Z,97652.09
2022-12-31T09:57:33.690Z,97643.38
2022-12-31T10:00:00.537Z,97630.28
2022-12-31T10:02:31.754Z,97629.50
2022-12-31T10:04:59.358Z,97615.16
2022-12-31T10:07:25.883Z,97613.72
2022-12-31T10:12:43.159Z,97610.59
2022-12-31T10:15:09.647Z,97600.03
2022-12-31T10:17:36.054Z,97596.09
2022-12-31T10:20:02.517Z,97589.25
2022-12-31T10:22:28.933Z,97570.31
2022-12-31T10:24:55.391Z,97587.75
2022-12-31T10:27:21.852Z,97578.22
2022-12-31T10:29:48.313Z,97569.91
2022-12-31T10:32:18.372Z,97567.59
2022-12-31T10:34:44.764Z,97569.47
2022-12-31T10:37:11.128Z,97567.16
2022-12-31T10:39:37.574Z,97580.66
2022-12-31T10:42:04.058Z,97573.56
2022-12-31T10:44:30.491Z,97568.78
2022-12-31T10:46:56.975Z,97560.91
2022-12-31T10:49:23.327Z,97564.63
2022-12-31T10:51:49.856Z,97559.63
2022-12-31T10:54:16.327Z,97550.47
2022-12-31T10:56:42.752Z,97554.03
2022-12-31T10:59:09.243Z,97550.66
2022-12-31T11:01:35.756Z,97563.94
2022-12-31T11:04:05.398Z,97557.91
2022-12-31T11:06:31.861Z,97556.03
2022-12-31T11:08:59.366Z,97555.00
2022-12-31T11:11:25.836Z,97552.72
2022-12-31T11:13:52.373Z,97552.28
2022-12-31T11:16:18.881Z,97548.19
2022-12-31T11:18:45.472Z,97541.28
2022-12-31T11:21:11.959Z,97527.75
2022-12-31T11:23:50.235Z,97524.06
2022-12-31T11:26:16.808Z,97530.03
2022-12-31T11:28:43.253Z,97533.75
2022-12-31T11:31:09.749Z,97519.06
2022-12-31T11:33:36.207Z,97516.88
2022-12-31T11:36:02.657Z,97513.78
2022-12-31T11:38:29.170Z,97512.47
2022-12-31T11:40:55.602Z,97507.97
2022-12-31T11:43:22.052Z,97504.25
2022-12-31T11:45:50.689Z,97493.22
2022-12-31T11:48:30.320Z,97490.94
2022-12-31T11:50:57.659Z,97478.84
2022-12-31T11:53:24.128Z,97474.28
2022-12-31T11:55:50.635Z,97480.03
2022-12-31T11:58:17.119Z,97462.44
2022-12-31T12:00:43.656Z,97461.75
2022-12-31T12:03:10.158Z,97458.59
2022-12-31T12:05:50.262Z,97462.56
2022-12-31T12:08:16.818Z,97453.84
2022-12-31T12:10:43.308Z,97455.28
2022-12-31T12:13:09.788Z,97450.00
2022-12-31T12:15:36.188Z,97442.50
2022-12-31T12:18:02.988Z,97428.31
2022-12-31T12:20:29.848Z,97424.13
2022-12-31T12:22:56.436Z,97422.00
2022-12-31T12:25:22.937Z,97417.56
2022-12-31T12:27:50.717Z,97423.00
2022-12-31T12:30:17.152Z,97426.72
2022-12-31T12:32:43.626Z,97425.09
2022-12-31T12:35:10.092Z,97423.66
2022-12-31T12:37:36.565Z,97418.25
2022-12-31T12:40:03.027Z,97412.44
2022-12-31T12:42:29.458Z,97425.38
2022-12-31T12:44:58.583Z,97429.13
2022-12-31T12:47:25.061Z,97415.00
2022-12-31T12:49:51.506Z,97422.69
2022-12-31T12:52:17.948Z,97424.13
2022-12-31T12:54:44.386Z,97427.03
2022-12-31T12:57:10.853Z,97425.97
2022-12-31T12:59:37.293Z,97436.72
2022-12-31T13:02:03.841Z,97429.06
2022-12-31T13:04:35.180Z,97433.81
2022-12-31T13:07:07.374Z,97436.69
2022-12-31T13:09:33.760Z,97435.03
2022-12-31T13:12:07.140Z,97439.44
2022-12-31T13:14:34.112Z,97428.34
2022-12-31T13:17:01.599Z,97433.72
2022-12-31T13:22:08.431Z,97453.41
2022-12-31T13:24:34.932Z,97447.91
2022-12-31T13:27:01.434Z,97446.78
2022-12-31T13:29:28.135Z,97433.50
2022-12-31T13:31:54.745Z,97439.00
2022-12-31T13:34:21.107Z,97450.06
2022-12-31T13:36:52.557Z,97436.53
2022-12-31T13:39:18.969Z,97445.97
2022-12-31T13:41:48.431Z,97440.97
2022-12-31T13:44:14.851Z,97444.72
2022-12-31T13:46:41.283Z,97434.13
2022-12-31T13:49:07.927Z,97439.66
2022-12-31T13:51:36.668Z,97435.97
2022-12-31T13:54:03.115Z,97438.25
2022-12-31T13:56:29.469Z,97439.44
2022-12-31T13:58:56.283Z,97438.91
2022-12-31T14:01:23.107Z,97446.94
2022-12-31T14:03:49.683Z,97461.75
2022-12-31T14:06:16.303Z,97445.97
2022-12-31T14:08:42.942Z,97442.28
2022-12-31T14:11:09.734Z,97443.66
2022-12-31T14:13:36.311Z,97459.97
2022-12-31T14:16:02.765Z,97454.63
2022-12-31T14:21:19.395Z,97472.53
2022-12-31T14:23:45.803Z,97467.16
2022-12-31T14:26:12.183Z,97471.75
2022-12-31T14:28:44.704Z,97483.63
2022-12-31T14:31:13.122Z,97490.63
2022-12-31T14:33:39.513Z,97499.00
2022-12-31T14:36:10.426Z,97469.91
2022-12-31T14:38:37.245Z,97480.78
2022-12-31T14:41:03.641Z,97482.44
2022-12-31T14:43:30.037Z,97486.38
2022-12-31T14:45:56.431Z,97469.69
2022-12-31T14:48:22.931Z,97485.75
2022-12-31T14:50:49.388Z,97477.84
2022-12-31T14:53:24.750Z,97480.56
2022-12-31T14:55:51.124Z,97488.66
2022-12-31T14:58:27.551Z,97485.16
2022-12-31T15:00:54.616Z,97484.28
2022-12-31T15:03:21.170Z,97482.50
2022-12-31T15:05:47.729Z,97481.22
2022-12-31T15:08:14.230Z,97474.38
2022-12-31T15:10:40.817Z,97484.59
2022-12-31T15:13:07.179Z,97484.81
2022-12-31T15:15:33.798Z,97487.09
2022-12-31T15:18:00.214Z,97481.91
2022-12-31T15:20:26.579Z,97485.41
2022-12-31T15:22:54.005Z,97479.34
2022-12-31T15:25:39.991Z,97502.00
2022-12-31T15:28:09.698Z,97505.47
2022-12-31T15:30:36.711Z,97506.50
2022-12-31T15:33:03.205Z,97504.84
2022-12-31T15:35:30.142Z,97502.94
2022-12-31T15:37:56.532Z,97518.22
2022-12-31T15:40:23.033Z,97504.72
2022-12-31T15:42:53.606Z,97511.59
2022-12-31T15:45:21.126Z,97517.63
2022-12-31T15:47:49.754Z,97500.59
2022-12-31T15:50:16.134Z,97515.78
2022-12-31T15:52:44.773Z,97517.41
2022-12-31T15:55:11.186Z,97515.22
2022-12-31T16:00:18.086Z,97511.91
2022-12-31T16:02:44.587Z,97506.13
2022-12-31T16:05:11.047Z,97501.31
2022-12-31T16:07:39.225Z,97516.94
2022-12-31T16:10:06.435Z,97519.25
2022-12-31T16:12:35.199Z,97511.13
2022-12-31T16:15:04.764Z,97515.34
2022-12-31T16:17:33.955Z,97514.56
2022-12-31T16:20:00.436Z,97504.72
2022-12-31T16:22:32.135Z,97512.66
2022-12-31T16:30:35.361Z,97517.59
2022-12-31T16:33:06.603Z,97527.78
2022-12-31T16:35:36.184Z,97515.75
2022-12-31T16:38:02.574Z,97532.63
2022-12-31T16:40:28.926Z,97535.53
2022-12-31T16:42:55.382Z,97522.56
2022-12-31T16:45:22.375Z,97526.94
2022-12-31T16:47:48.882Z,97535.09
2022-12-31T16:50:15.356Z,97534.75
2022-12-31T16:52:41.803Z,97541.41
2022-12-31T16:55:09.254Z,97543.16
2022-12-31T16:57:35.658Z,97543.78
2022-12-31T17:00:02.053Z,97531.72
2022-12-31T17:02:28.593Z,97526.75
2022-12-31T17:04:56.392Z,97537.53
2022-12-31T17:07:22.927Z,97535.22
2022-12-31T17:09:49.270Z,97546.00
2022-12-31T17:12:27.149Z,97537.97
2022-12-31T17:14:53.613Z,97533.19
2022-12-31T17:17:20.122Z,97544.00
2022-12-31T17:19:46.598Z,97555.44
2022-12-31T17:22:13.231Z,97541.09
2022-12-31T17:24:39.721Z,97548.13
2022-12-31T17:27:06.231Z,97553.75
2022-12-31T17:29:32.627Z,97564.97
2022-12-31T17:31:59.019Z,97559.16
2022-12-31T17:34:25.408Z,97561.84
2022-12-31T17:36:53.040Z,97568.72
2022-12-31T17:39:19.465Z,97580.16
2022-12-31T17:41:45.841Z,97570.81
2022-12-31T17:44:12.280Z,97571.84
2022-12-31T17:46:38.784Z,97583.50
2022-12-31T17:49:05.237Z,97586.25
2022-12-31T17:51:31.638Z,97575.25
2022-12-31T17:53:58.009Z,97574.41
2022-12-31T17:56:24.462Z,97580.16
2022-12-31T17:58:50.944Z,97575.59
2022-12-31T18:01:17.531Z,97574.28
2022-12-31T18:03:44.011Z,97562.13
2022-12-31T18:06:16.305Z,97550.81
2022-12-31T18:08:43.355Z,97565.94
2022-12-31T18:11:09.859Z,97568.06
2022-12-31T18:13:36.322Z,97561.06
2022-12-31T18:16:02.833Z,97556.88
2022-12-31T18:18:29.204Z,97560.84
2022-12-31T18:20:55.653Z,97561.31
2022-12-31T18:23:22.119Z,97562.19
2022-12-31T18:25:48.545Z,97546.66
2022-12-31T18:28:15.009Z,97541.88
2022-12-31T18:30:42.261Z,97544.00
2022-12-31T18:33:08.778Z,97536.19
2022-12-31T18:36:08.227Z,97532.38
2022-12-31T18:38:21.450Z,97552.16
2022-12-31T18:40:47.816Z,97543.66
2022-12-31T18:43:14.192Z,97549.06
2022-12-31T18:48:23.863Z,97553.22
2022-12-31T18:50:55.068Z,97552.19
2022-12-31T18:53:21.508Z,97544.31
2022-12-31T18:55:47.969Z,97561.56
2022-12-31T18:58:14.431Z,97563.25
2022-12-31T19:00:41.165Z,97557.91
2022-12-31T19:03:07.667Z,97572.88
2022-12-31T19:05:35.340Z,97566.66
2022-12-31T19:08:01.766Z,97570.22
2022-12-31T19:10:28.241Z,97574.97
2022-12-31T19:12:57.430Z,97559.44
2022-12-31T19:15:24.060Z,97575.63
2022-12-31T19:17:50.485Z,97564.19
2022-12-31T19:20:16.946Z,97554.41
2022-12-31T19:22:43.550Z,97559.44
2022-12-31T19:25:16.233Z,97565.03
2022-12-31T19:27:44.890Z,97554.47
2022-12-31T19:32:52.737Z,97556.06
2022-12-31T19:35:22.033Z,97550.88
2022-12-31T19:37:48.616Z,97567.47
2022-12-31T19:40:15.095Z,97575.78
2022-12-31T19:42:41.535Z,97580.16
2022-12-31T19:45:08.191Z,97576.81
2022-12-31T19:47:34.595Z,97576.19
2022-12-31T19:50:01.122Z,97577.03
2022-12-31T19:52:27.583Z,97580.56
2022-12-31T19:54:54.120Z,97574.06
2022-12-31T19:57:20.540Z,97590.50
2022-12-31T19:59:47.021Z,97588.66
2022-12-31T20:02:13.557Z,97581.78
2022-12-31T20:04:40.217Z,97583.25
2022-12-31T20:07:09.341Z,97584.50
2022-12-31T20:09:38.597Z,97579.75
2022-12-31T20:12:05.037Z,97579.53
2022-12-31T20:14:31.459Z,97588.63
2022-12-31T20:16:57.878Z,97588.81
2022-12-31T20:19:24.597Z,97606.47
2022-12-31T20:21:51.353Z,97599.22
2022-12-31T20:24:17.755Z,97603.16
2022-12-31T20:26:44.180Z,97589.88
2022-12-31T20:29:10.629Z,97606.47
2022-12-31T20:31:37.103Z,97591.50
2022-12-31T20:34:03.590Z,97612.50
2022-12-31T20:36:40.632Z,97596.28
2022-12-31T20:39:07.099Z,97624.50
2022-12-31T20:41:34.221Z,97623.25
2022-12-31T20:44:00.712Z,97626.41
2022-12-31T20:46:27.293Z,97620.19
2022-12-31T20:48:53.771Z,97635.97
2022-12-31T20:51:21.355Z,97647.78
2022-12-31T20:53:47.815Z,97650.06
2022-12-31T20:56:15.932Z,97648.44
2022-12-31T20:58:48.412Z,97650.31
2022-12-31T21:01:17.477Z,97654.50
2022-12-31T21:06:30.558Z,97647.25
2022-12-31T21:08:57.133Z,97642.50
2022-12-31T21:11:23.899Z,97644.38
2022-12-31T21:13:50.326Z,97653.09
2022-12-31T21:16:16.729Z,97649.38
2022-12-31T21:18:43.240Z,97651.88
2022-12-31T21:21:09.698Z,97650.19
2022-12-31T21:26:16.389Z,97659.13
2022-12-31T21:28:42.926Z,97651.00
2022-12-31T21:31:11.501Z,97645.81
2022-12-31T21:33:37.981Z,97637.72
2022-12-31T21:36:05.063Z,97643.97
2022-12-31T21:38:31.690Z,97640.66
2022-12-31T21:40:58.088Z,97641.28
2022-12-31T21:43:24.477Z,97642.94
2022-12-31T21:45:50.919Z,97645.00
2022-12-31T21:48:17.330Z,97653.09
2022-12-31T21:50:43.719Z,97642.69
2022-12-31T21:53:10.197Z,97647.06
2022-12-31T21:55:42.581Z,97662.88
2022-12-31T21:58:25.743Z,97667.44
2022-12-31T22:00:52.810Z,97658.94
2022-12-31T22:03:19.298Z,97670.97
2022-12-31T22:05:45.769Z,97673.47
2022-12-31T22:08:12.185Z,97669.13
2022-12-31T22:10:44.671Z,97687.59
2022-12-31T22:13:17.507Z,97689.47
2022-12-31T22:15:44.058Z,97676.78
2022-12-31T22:18:10.489Z,97677.22
2022-12-31T22:20:36.998Z,97674.91
2022-12-31T22:23:07.114Z,97686.34
2022-12-31T22:25:33.572Z,97692.16
2022-12-31T22:28:37.064Z,97705.63
2022-12-31T22:30:52.415Z,97711.69
2022-12-31T22:33:19.899Z,97698.41
2022-12-31T22:35:46.401Z,97707.09
2022-12-31T22:38:12.899Z,97721.41
2022-12-31T22:40:39.403Z,97724.53
2022-12-31T22:43:07.506Z,97716.66
2022-12-31T22:45:43.059Z,97710.84
2022-12-31T22:48:09.761Z,97709.41
2022-12-31T22:50:38.975Z,97712.50
2022-12-31T22:53:08.671Z,97699.22
2022-12-31T22:55:35.035Z,97717.91
2022-12-31T22:58:01.440Z,97725.56
2022-12-31T23:03:08.336Z,97695.88
2022-12-31T23:05:35.956Z,97710.84
2022-12-31T23:08:06.148Z,97727.44
2022-12-31T23:10:46.640Z,97714.78
2022-12-31T23:13:13.047Z,97702.53
2022-12-31T23:15:39.486Z,97718.53
2022-12-31T23:18:05.897Z,97720.38
2022-12-31T23:20:32.272Z,97724.53
2022-12-31T23:22:58.661Z,97714.56
2022-12-31T23:25:25.009Z,97724.13
2022-12-31T23:27:51.392Z,97711.03
2022-12-31T23:30:17.804Z,97706.25
2022-12-31T23:35:34.863Z,97706.25
2022-12-31T23:43:33.321Z,97717.72
2022-12-31T23:45:59.811Z,97725.81
2022-12-31T23:48:26.144Z,97733.69
2022-12-31T23:50:54.432Z,97719.16
2022-12-31T23:53:20.924Z,97722.47
2022-12-31T23:55:50.334Z,97708.16
2022-12-31T23:58:16.804Z,97720.81
